Meteo Giornale » Osservazioni meteo Stati Uniti (USA) » Borger Hutchinson
ore: 12:51 - Osservazioni Meteo Borger Hutchinson
Lat. 35° 41' N Lon. 101° 23' W Alt. 931 metri s.l.m.
33 °C
Nuvoloso
Temp. 24 Ore
25 °C
37 °C
Sud/Sud-Est
13 Km/h
Dew point 12 °C
Umidità 27 %
Visibilità 10 Km
Il sole sorge alle ore 07:17
Il sole tramonta alle ore 20:13
| Data e Ora | Cielo e Fenomeni | T °C | DP °C | Um. % | Pres. hPa | Vis. km | Vento km/h | |
|---|---|---|---|---|---|---|---|---|
| Oggi h: 12:51 | Nuvoloso | 33 | 12 | 27 | 1019 | 10 | S/SE 13 | |
| Oggi h: 11:51 | Sereno | 33 | 14 | 31 | 1019 | 10 | S/SO 18.5 | |
| Oggi h: 10:51 | Sereno | 32 | 16 | 38 | 1019 | 10 | SO 25.9 | |
| Oggi h: 09:51 | Sereno | 29 | 15 | 42 | 1019 | 10 | SO 22.2 | |
| Oggi h: 08:51 | Nuvoloso | 27 | 14 | 44 | 1019 | 10 | S 22.2 | |
| Oggi h: 07:51 | Molto Nuvoloso | 26 | 14 | 47 | 1019 | 10 | S 14.8 | |
| Oggi h: 06:51 | Poco Nuvoloso | 26 | 13 | 44 | 1018 | 10 | S 18.5 | |
| Oggi h: 05:51 | Sereno | 25 | 12 | 44 | 1018 | 10 | S 16.7 | |
| Oggi h: 04:51 | Poco Nuvoloso | 26 | 12 | 41 | 1018 | 10 | S 20.3 | |
| Oggi h: 03:51 | Sereno | 27 | 12 | 39 | 1018 | 10 | S 22.2 | |
| Oggi h: 02:51 | Sereno | 27 | 12 | 39 | 1018 | 10 | S 27.8 | |
| Oggi h: 01:51 | Sereno | 27 | 12 | 39 | 1018 | 10 | S 24 | |
| Oggi h: 00:51 | Sereno | 28 | 13 | 39 | 1018 | 10 | S/SE 22.2 | |
| Ieri h: 23:51 | Sereno | 28 | 13 | 39 | 1018 | 10 | S/SE 18.5 | |
| Ieri h: 22:51 | Sereno | 29 | 13 | 37 | 1018 | 10 | SE 16.7 | |
| Ieri h: 21:51 | Sereno | 31 | 12 | 31 | 1017 | 10 | S/SE 20.3 | |
| Ieri h: 20:51 | Sereno | 32 | 12 | 29 | 1016 | 10 | SE 20.3 | |
| Ieri h: 19:51 | Sereno | 34 | 12 | 26 | 1015 | 10 | S/SE 22.2 | |
| Ieri h: 18:51 | Sereno | 36 | 11 | 22 | 1015 | 10 | S/SE 22.2 | |
| Ieri h: 17:51 | Sereno | 36 | 11 | 22 | 1015 | 10 | S/SE 18.5 | |
| Ieri h: 16:51 | Poco Nuvoloso | 37 | 10 | 19 | 1015 | 10 | S/SE 18.5 | |
| Ieri h: 15:51 | Poco Nuvoloso | 37 | 11 | 20 | 1016 | 10 | S 16.7 | |
| Ieri h: 14:51 | Poco Nuvoloso | 35 | 12 | 24 | 1017 | 10 | S 20.3 | |
| Ieri h: 13:51 | Sereno | 36 | 13 | 25 | 1017 | 10 | S/SO 18.5 | |



